sensor_id;sensor_type;location;lat;lon;timestamp;P1;durP1;ratioP1;P2;durP2;ratioP2
21258;SDS011;10787;53.364;-1.480;2024-03-17T00:02:13;32.23;;;18.13;;
21258;SDS011;10787;53.364;-1.480;2024-03-17T00:04:57;33.30;;;17.97;;
21258;SDS011;10787;53.364;-1.480;2024-03-17T00:07:42;32.40;;;18.47;;
21258;SDS011;10787;53.364;-1.480;2024-03-17T00:10:26;31.63;;;17.90;;
21258;SDS011;10787;53.364;-1.480;2024-03-17T00:13:10;32.13;;;17.67;;
21258;SDS011;10787;53.364;-1.480;2024-03-17T00:15:54;36.27;;;18.23;;
21258;SDS011;10787;53.364;-1.480;2024-03-17T00:18:41;34.90;;;17.83;;
21258;SDS011;10787;53.364;-1.480;2024-03-17T00:21:25;31.43;;;18.03;;
21258;SDS011;10787;53.364;-1.480;2024-03-17T00:24:10;36.73;;;18.47;;
21258;SDS011;10787;53.364;-1.480;2024-03-17T00:26:54;37.20;;;18.80;;
21258;SDS011;10787;53.364;-1.480;2024-03-17T00:29:38;34.83;;;18.10;;
21258;SDS011;10787;53.364;-1.480;2024-03-17T00:32:22;36.00;;;17.83;;
21258;SDS011;10787;53.364;-1.480;2024-03-17T00:35:08;36.80;;;18.70;;
21258;SDS011;10787;53.364;-1.480;2024-03-17T00:37:54;38.03;;;19.07;;
21258;SDS011;10787;53.364;-1.480;2024-03-17T00:40:38;37.87;;;19.67;;
21258;SDS011;10787;53.364;-1.480;2024-03-17T00:43:28;37.67;;;19.73;;
21258;SDS011;10787;53.364;-1.480;2024-03-17T00:46:12;47.57;;;20.03;;
21258;SDS011;10787;53.364;-1.480;2024-03-17T00:48:56;38.47;;;19.27;;
21258;SDS011;10787;53.364;-1.480;2024-03-17T00:51:41;38.03;;;19.37;;
21258;SDS011;10787;53.364;-1.480;2024-03-17T00:54:26;35.37;;;19.57;;
21258;SDS011;10787;53.364;-1.480;2024-03-17T00:57:10;35.07;;;19.10;;
21258;SDS011;10787;53.364;-1.480;2024-03-17T00:59:54;39.63;;;18.83;;
21258;SDS011;10787;53.364;-1.480;2024-03-17T01:02:39;40.90;;;19.13;;
21258;SDS011;10787;53.364;-1.480;2024-03-17T01:05:23;38.47;;;18.90;;
21258;SDS011;10787;53.364;-1.480;2024-03-17T01:08:08;40.60;;;18.10;;
21258;SDS011;10787;53.364;-1.480;2024-03-17T01:10:53;35.23;;;17.70;;
21258;SDS011;10787;53.364;-1.480;2024-03-17T01:13:37;37.07;;;18.57;;
21258;SDS011;10787;53.364;-1.480;2024-03-17T01:16:25;39.07;;;18.53;;
21258;SDS011;10787;53.364;-1.480;2024-03-17T01:19:09;35.57;;;18.03;;
21258;SDS011;10787;53.364;-1.480;2024-03-17T01:21:53;36.97;;;18.47;;
21258;SDS011;10787;53.364;-1.480;2024-03-17T01:24:38;36.73;;;17.57;;
21258;SDS011;10787;53.364;-1.480;2024-03-17T01:27:26;34.10;;;16.93;;
21258;SDS011;10787;53.364;-1.480;2024-03-17T01:30:10;31.97;;;16.73;;
21258;SDS011;10787;53.364;-1.480;2024-03-17T01:32:55;34.43;;;17.00;;
21258;SDS011;10787;53.364;-1.480;2024-03-17T01:35:40;30.90;;;17.20;;
21258;SDS011;10787;53.364;-1.480;2024-03-17T01:38:24;29.67;;;16.40;;
21258;SDS011;10787;53.364;-1.480;2024-03-17T01:41:08;32.20;;;15.97;;
21258;SDS011;10787;53.364;-1.480;2024-03-17T01:43:53;31.70;;;16.83;;
21258;SDS011;10787;53.364;-1.480;2024-03-17T01:46:37;30.57;;;15.60;;
21258;SDS011;10787;53.364;-1.480;2024-03-17T01:49:21;35.17;;;15.73;;
21258;SDS011;10787;53.364;-1.480;2024-03-17T01:52:07;32.80;;;15.30;;
21258;SDS011;10787;53.364;-1.480;2024-03-17T01:54:52;28.97;;;15.03;;
21258;SDS011;10787;53.364;-1.480;2024-03-17T01:57:36;28.77;;;15.20;;
21258;SDS011;10787;53.364;-1.480;2024-03-17T02:00:20;30.27;;;14.57;;
21258;SDS011;10787;53.364;-1.480;2024-03-17T02:03:05;28.93;;;14.93;;
21258;SDS011;10787;53.364;-1.480;2024-03-17T02:05:54;26.67;;;14.03;;
21258;SDS011;10787;53.364;-1.480;2024-03-17T02:08:51;30.03;;;14.73;;
21258;SDS011;10787;53.364;-1.480;2024-03-17T02:11:38;28.90;;;14.13;;
21258;SDS011;10787;53.364;-1.480;2024-03-17T02:14:22;28.67;;;13.83;;
21258;SDS011;10787;53.364;-1.480;2024-03-17T02:17:07;29.10;;;13.33;;
21258;SDS011;10787;53.364;-1.480;2024-03-17T02:19:52;28.97;;;12.97;;
21258;SDS011;10787;53.364;-1.480;2024-03-17T02:22:36;23.40;;;13.13;;
21258;SDS011;10787;53.364;-1.480;2024-03-17T02:25:21;24.87;;;12.80;;
21258;SDS011;10787;53.364;-1.480;2024-03-17T02:28:05;24.43;;;12.50;;
21258;SDS011;10787;53.364;-1.480;2024-03-17T02:30:50;24.13;;;12.50;;
21258;SDS011;10787;53.364;-1.480;2024-03-17T02:33:34;25.67;;;12.03;;
21258;SDS011;10787;53.364;-1.480;2024-03-17T02:36:19;26.63;;;12.37;;
21258;SDS011;10787;53.364;-1.480;2024-03-17T02:39:03;28.00;;;12.60;;
21258;SDS011;10787;53.364;-1.480;2024-03-17T02:42:07;22.63;;;11.40;;
21258;SDS011;10787;53.364;-1.480;2024-03-17T02:44:52;22.97;;;12.10;;
21258;SDS011;10787;53.364;-1.480;2024-03-17T02:47:37;24.37;;;12.57;;
21258;SDS011;10787;53.364;-1.480;2024-03-17T02:50:21;29.07;;;11.57;;
21258;SDS011;10787;53.364;-1.480;2024-03-17T02:53:05;28.73;;;11.93;;
21258;SDS011;10787;53.364;-1.480;2024-03-17T02:55:49;24.03;;;11.47;;
21258;SDS011;10787;53.364;-1.480;2024-03-17T02:58:35;27.03;;;12.17;;
21258;SDS011;10787;53.364;-1.480;2024-03-17T03:01:19;32.30;;;12.23;;
21258;SDS011;10787;53.364;-1.480;2024-03-17T03:04:03;27.90;;;11.67;;
21258;SDS011;10787;53.364;-1.480;2024-03-17T03:06:48;32.07;;;12.77;;
21258;SDS011;10787;53.364;-1.480;2024-03-17T03:09:33;26.87;;;12.47;;
21258;SDS011;10787;53.364;-1.480;2024-03-17T03:12:18;28.33;;;12.67;;
21258;SDS011;10787;53.364;-1.480;2024-03-17T03:15:02;31.80;;;12.77;;
21258;SDS011;10787;53.364;-1.480;2024-03-17T03:17:46;33.50;;;12.90;;
21258;SDS011;10787;53.364;-1.480;2024-03-17T03:20:31;29.43;;;13.30;;
21258;SDS011;10787;53.364;-1.480;2024-03-17T03:23:15;31.27;;;13.10;;
21258;SDS011;10787;53.364;-1.480;2024-03-17T03:26:00;34.33;;;13.33;;
21258;SDS011;10787;53.364;-1.480;2024-03-17T03:28:52;29.47;;;12.87;;
21258;SDS011;10787;53.364;-1.480;2024-03-17T03:31:38;29.70;;;12.17;;
21258;SDS011;10787;53.364;-1.480;2024-03-17T03:34:25;25.93;;;11.40;;
21258;SDS011;10787;53.364;-1.480;2024-03-17T03:37:09;22.30;;;11.20;;
21258;SDS011;10787;53.364;-1.480;2024-03-17T03:39:54;28.77;;;11.50;;
21258;SDS011;10787;53.364;-1.480;2024-03-17T03:42:38;25.93;;;11.33;;
21258;SDS011;10787;53.364;-1.480;2024-03-17T03:45:22;24.57;;;11.10;;
21258;SDS011;10787;53.364;-1.480;2024-03-17T03:48:07;24.80;;;11.17;;
21258;SDS011;10787;53.364;-1.480;2024-03-17T03:50:52;23.70;;;10.37;;
21258;SDS011;10787;53.364;-1.480;2024-03-17T03:53:38;23.27;;;10.40;;
21258;SDS011;10787;53.364;-1.480;2024-03-17T03:56:22;24.07;;;10.47;;
21258;SDS011;10787;53.364;-1.480;2024-03-17T03:59:06;25.53;;;10.80;;
21258;SDS011;10787;53.364;-1.480;2024-03-17T04:01:51;26.20;;;10.30;;
21258;SDS011;10787;53.364;-1.480;2024-03-17T04:04:36;22.40;;;10.23;;
21258;SDS011;10787;53.364;-1.480;2024-03-17T04:07:20;22.70;;;9.40;;
21258;SDS011;10787;53.364;-1.480;2024-03-17T04:10:05;21.30;;;9.57;;
21258;SDS011;10787;53.364;-1.480;2024-03-17T04:12:50;22.70;;;8.97;;
21258;SDS011;10787;53.364;-1.480;2024-03-17T04:15:35;20.13;;;9.60;;
21258;SDS011;10787;53.364;-1.480;2024-03-17T04:18:20;17.87;;;8.77;;
21258;SDS011;10787;53.364;-1.480;2024-03-17T04:21:04;22.10;;;8.70;;
21258;SDS011;10787;53.364;-1.480;2024-03-17T04:23:50;16.67;;;8.20;;
21258;SDS011;10787;53.364;-1.480;2024-03-17T04:26:34;18.77;;;8.50;;
21258;SDS011;10787;53.364;-1.480;2024-03-17T04:29:18;18.47;;;8.13;;
21258;SDS011;10787;53.364;-1.480;2024-03-17T04:32:04;17.80;;;8.10;;
21258;SDS011;10787;53.364;-1.480;2024-03-17T04:34:48;16.07;;;7.60;;
21258;SDS011;10787;53.364;-1.480;2024-03-17T04:37:33;17.90;;;8.03;;
21258;SDS011;10787;53.364;-1.480;2024-03-17T04:40:22;17.23;;;7.97;;
21258;SDS011;10787;53.364;-1.480;2024-03-17T04:43:06;14.33;;;7.43;;
21258;SDS011;10787;53.364;-1.480;2024-03-17T04:45:58;15.93;;;8.00;;
21258;SDS011;10787;53.364;-1.480;2024-03-17T04:48:43;19.07;;;8.27;;
21258;SDS011;10787;53.364;-1.480;2024-03-17T04:51:27;33.67;;;10.17;;
21258;SDS011;10787;53.364;-1.480;2024-03-17T04:54:12;16.60;;;8.90;;
21258;SDS011;10787;53.364;-1.480;2024-03-17T04:56:56;15.93;;;9.00;;
21258;SDS011;10787;53.364;-1.480;2024-03-17T04:59:40;17.77;;;8.80;;
21258;SDS011;10787;53.364;-1.480;2024-03-17T05:02:24;19.63;;;9.23;;
21258;SDS011;10787;53.364;-1.480;2024-03-17T05:05:09;17.93;;;8.97;;
21258;SDS011;10787;53.364;-1.480;2024-03-17T05:07:54;20.87;;;9.93;;
21258;SDS011;10787;53.364;-1.480;2024-03-17T05:10:38;19.60;;;9.43;;
21258;SDS011;10787;53.364;-1.480;2024-03-17T05:13:22;19.37;;;9.40;;
21258;SDS011;10787;53.364;-1.480;2024-03-17T05:16:07;18.23;;;9.03;;
21258;SDS011;10787;53.364;-1.480;2024-03-17T05:18:51;15.53;;;8.50;;
21258;SDS011;10787;53.364;-1.480;2024-03-17T05:21:35;13.97;;;8.07;;
21258;SDS011;10787;53.364;-1.480;2024-03-17T05:24:20;16.03;;;8.10;;
21258;SDS011;10787;53.364;-1.480;2024-03-17T05:27:05;18.17;;;7.33;;
21258;SDS011;10787;53.364;-1.480;2024-03-17T05:29:49;14.60;;;6.63;;
21258;SDS011;10787;53.364;-1.480;2024-03-17T05:32:35;13.00;;;6.03;;
21258;SDS011;10787;53.364;-1.480;2024-03-17T05:35:18;10.03;;;5.77;;
21258;SDS011;10787;53.364;-1.480;2024-03-17T05:38:03;9.63;;;5.47;;
21258;SDS011;10787;53.364;-1.480;2024-03-17T05:40:57;12.03;;;5.23;;
21258;SDS011;10787;53.364;-1.480;2024-03-17T05:43:46;9.40;;;4.80;;
21258;SDS011;10787;53.364;-1.480;2024-03-17T05:46:32;7.83;;;4.70;;
21258;SDS011;10787;53.364;-1.480;2024-03-17T05:49:16;10.47;;;4.60;;
21258;SDS011;10787;53.364;-1.480;2024-03-17T05:52:01;8.00;;;4.07;;
21258;SDS011;10787;53.364;-1.480;2024-03-17T05:54:45;9.53;;;4.00;;
21258;SDS011;10787;53.364;-1.480;2024-03-17T05:57:30;8.23;;;3.63;;
21258;SDS011;10787;53.364;-1.480;2024-03-17T06:00:14;7.13;;;3.70;;
21258;SDS011;10787;53.364;-1.480;2024-03-17T06:02:59;8.87;;;3.67;;
21258;SDS011;10787;53.364;-1.480;2024-03-17T06:05:44;8.63;;;3.67;;
21258;SDS011;10787;53.364;-1.480;2024-03-17T06:08:30;7.27;;;3.50;;
21258;SDS011;10787;53.364;-1.480;2024-03-17T06:11:14;7.80;;;3.53;;
21258;SDS011;10787;53.364;-1.480;2024-03-17T06:13:58;7.77;;;3.40;;
21258;SDS011;10787;53.364;-1.480;2024-03-17T06:16:45;5.97;;;2.90;;
21258;SDS011;10787;53.364;-1.480;2024-03-17T06:19:30;8.23;;;2.90;;
21258;SDS011;10787;53.364;-1.480;2024-03-17T06:22:14;6.70;;;2.33;;
21258;SDS011;10787;53.364;-1.480;2024-03-17T06:24:58;4.30;;;2.57;;
21258;SDS011;10787;53.364;-1.480;2024-03-17T06:27:43;4.77;;;2.20;;
21258;SDS011;10787;53.364;-1.480;2024-03-17T06:30:27;5.63;;;2.00;;
21258;SDS011;10787;53.364;-1.480;2024-03-17T06:33:11;3.80;;;1.97;;
21258;SDS011;10787;53.364;-1.480;2024-03-17T06:35:56;2.77;;;1.70;;
21258;SDS011;10787;53.364;-1.480;2024-03-17T06:38:40;3.50;;;1.93;;
21258;SDS011;10787;53.364;-1.480;2024-03-17T06:41:25;3.40;;;2.00;;
21258;SDS011;10787;53.364;-1.480;2024-03-17T06:44:09;5.83;;;2.40;;
21258;SDS011;10787;53.364;-1.480;2024-03-17T06:46:53;5.53;;;2.20;;
21258;SDS011;10787;53.364;-1.480;2024-03-17T06:49:37;4.73;;;2.40;;
21258;SDS011;10787;53.364;-1.480;2024-03-17T06:52:21;6.30;;;2.43;;
21258;SDS011;10787;53.364;-1.480;2024-03-17T06:55:06;5.27;;;2.50;;
21258;SDS011;10787;53.364;-1.480;2024-03-17T06:57:51;2.97;;;2.33;;
21258;SDS011;10787;53.364;-1.480;2024-03-17T07:00:35;6.63;;;3.07;;
21258;SDS011;10787;53.364;-1.480;2024-03-17T07:03:19;5.13;;;3.20;;
21258;SDS011;10787;53.364;-1.480;2024-03-17T07:06:03;4.10;;;2.47;;
21258;SDS011;10787;53.364;-1.480;2024-03-17T07:08:48;4.40;;;2.50;;
21258;SDS011;10787;53.364;-1.480;2024-03-17T07:11:32;5.27;;;2.50;;
21258;SDS011;10787;53.364;-1.480;2024-03-17T07:14:17;4.40;;;2.97;;
21258;SDS011;10787;53.364;-1.480;2024-03-17T07:17:01;4.67;;;3.13;;
21258;SDS011;10787;53.364;-1.480;2024-03-17T07:19:46;7.60;;;3.53;;
21258;SDS011;10787;53.364;-1.480;2024-03-17T07:22:31;5.73;;;3.30;;
21258;SDS011;10787;53.364;-1.480;2024-03-17T07:25:15;6.50;;;3.97;;
21258;SDS011;10787;53.364;-1.480;2024-03-17T07:28:00;6.47;;;4.27;;
21258;SDS011;10787;53.364;-1.480;2024-03-17T07:30:51;7.03;;;4.30;;
21258;SDS011;10787;53.364;-1.480;2024-03-17T07:33:39;6.40;;;3.87;;
21258;SDS011;10787;53.364;-1.480;2024-03-17T07:36:23;8.97;;;4.10;;
21258;SDS011;10787;53.364;-1.480;2024-03-17T07:39:07;6.77;;;3.60;;
21258;SDS011;10787;53.364;-1.480;2024-03-17T07:41:51;6.33;;;3.80;;
21258;SDS011;10787;53.364;-1.480;2024-03-17T07:44:35;6.93;;;3.80;;
21258;SDS011;10787;53.364;-1.480;2024-03-17T07:47:20;7.13;;;3.97;;
21258;SDS011;10787;53.364;-1.480;2024-03-17T07:50:04;10.23;;;4.00;;
21258;SDS011;10787;53.364;-1.480;2024-03-17T07:52:49;6.67;;;4.07;;
21258;SDS011;10787;53.364;-1.480;2024-03-17T07:55:33;16.03;;;5.30;;
21258;SDS011;10787;53.364;-1.480;2024-03-17T07:58:18;6.77;;;4.10;;
21258;SDS011;10787;53.364;-1.480;2024-03-17T08:01:03;4.57;;;3.33;;
21258;SDS011;10787;53.364;-1.480;2024-03-17T08:03:48;6.07;;;3.30;;
21258;SDS011;10787;53.364;-1.480;2024-03-17T08:06:40;8.90;;;4.20;;
21258;SDS011;10787;53.364;-1.480;2024-03-17T08:09:25;6.53;;;3.50;;
21258;SDS011;10787;53.364;-1.480;2024-03-17T08:12:09;6.60;;;3.50;;
21258;SDS011;10787;53.364;-1.480;2024-03-17T08:14:53;6.13;;;3.80;;
21258;SDS011;10787;53.364;-1.480;2024-03-17T08:17:37;5.00;;;3.03;;
21258;SDS011;10787;53.364;-1.480;2024-03-17T08:20:22;6.47;;;3.30;;
21258;SDS011;10787;53.364;-1.480;2024-03-17T08:23:06;5.23;;;3.23;;
21258;SDS011;10787;53.364;-1.480;2024-03-17T08:25:55;3.77;;;2.93;;
21258;SDS011;10787;53.364;-1.480;2024-03-17T08:28:40;4.40;;;2.60;;
21258;SDS011;10787;53.364;-1.480;2024-03-17T08:31:24;5.17;;;2.90;;
21258;SDS011;10787;53.364;-1.480;2024-03-17T08:34:09;5.63;;;3.40;;
21258;SDS011;10787;53.364;-1.480;2024-03-17T08:36:53;5.23;;;2.43;;
21258;SDS011;10787;53.364;-1.480;2024-03-17T08:39:37;4.47;;;2.40;;
21258;SDS011;10787;53.364;-1.480;2024-03-17T08:42:21;3.80;;;2.30;;
21258;SDS011;10787;53.364;-1.480;2024-03-17T08:45:06;4.47;;;2.10;;
21258;SDS011;10787;53.364;-1.480;2024-03-17T08:47:53;3.30;;;2.00;;
21258;SDS011;10787;53.364;-1.480;2024-03-17T08:50:37;3.13;;;1.90;;
21258;SDS011;10787;53.364;-1.480;2024-03-17T08:53:22;2.20;;;1.73;;
21258;SDS011;10787;53.364;-1.480;2024-03-17T08:56:07;2.77;;;1.60;;
21258;SDS011;10787;53.364;-1.480;2024-03-17T08:58:51;2.50;;;1.80;;
21258;SDS011;10787;53.364;-1.480;2024-03-17T09:01:35;3.43;;;2.10;;
21258;SDS011;10787;53.364;-1.480;2024-03-17T09:04:19;2.70;;;1.73;;
21258;SDS011;10787;53.364;-1.480;2024-03-17T09:07:03;2.20;;;1.80;;
21258;SDS011;10787;53.364;-1.480;2024-03-17T09:10:03;2.60;;;1.70;;
21258;SDS011;10787;53.364;-1.480;2024-03-17T09:12:49;2.17;;;1.67;;
21258;SDS011;10787;53.364;-1.480;2024-03-17T09:15:33;2.23;;;1.67;;
21258;SDS011;10787;53.364;-1.480;2024-03-17T09:18:18;3.53;;;1.70;;
21258;SDS011;10787;53.364;-1.480;2024-03-17T09:21:03;1.97;;;1.60;;
21258;SDS011;10787;53.364;-1.480;2024-03-17T09:23:51;4.97;;;1.80;;
21258;SDS011;10787;53.364;-1.480;2024-03-17T09:26:36;2.53;;;1.60;;
21258;SDS011;10787;53.364;-1.480;2024-03-17T09:29:23;2.90;;;2.00;;
21258;SDS011;10787;53.364;-1.480;2024-03-17T09:32:07;2.23;;;1.40;;
21258;SDS011;10787;53.364;-1.480;2024-03-17T09:34:55;1.67;;;1.50;;
21258;SDS011;10787;53.364;-1.480;2024-03-17T09:37:39;2.13;;;1.60;;
21258;SDS011;10787;53.364;-1.480;2024-03-17T09:40:23;5.63;;;1.20;;
21258;SDS011;10787;53.364;-1.480;2024-03-17T09:43:08;1.83;;;1.10;;
21258;SDS011;10787;53.364;-1.480;2024-03-17T09:45:55;1.40;;;1.10;;
21258;SDS011;10787;53.364;-1.480;2024-03-17T09:48:43;2.57;;;1.27;;
21258;SDS011;10787;53.364;-1.480;2024-03-17T09:51:27;1.80;;;1.30;;
21258;SDS011;10787;53.364;-1.480;2024-03-17T09:54:18;1.97;;;1.20;;
21258;SDS011;10787;53.364;-1.480;2024-03-17T09:57:07;1.67;;;1.20;;
21258;SDS011;10787;53.364;-1.480;2024-03-17T09:59:58;2.50;;;1.20;;
21258;SDS011;10787;53.364;-1.480;2024-03-17T10:02:46;1.20;;;1.10;;
21258;SDS011;10787;53.364;-1.480;2024-03-17T10:05:30;2.00;;;1.47;;
21258;SDS011;10787;53.364;-1.480;2024-03-17T10:08:22;1.97;;;1.50;;
21258;SDS011;10787;53.364;-1.480;2024-03-17T10:11:08;2.83;;;2.10;;
21258;SDS011;10787;53.364;-1.480;2024-03-17T10:14:05;2.87;;;2.57;;
21258;SDS011;10787;53.364;-1.480;2024-03-17T10:16:51;2.67;;;2.40;;
21258;SDS011;10787;53.364;-1.480;2024-03-17T10:19:36;2.60;;;2.40;;
21258;SDS011;10787;53.364;-1.480;2024-03-17T10:22:23;3.43;;;2.77;;
21258;SDS011;10787;53.364;-1.480;2024-03-17T10:25:07;2.10;;;1.90;;
21258;SDS011;10787;53.364;-1.480;2024-03-17T10:27:54;2.40;;;2.20;;
21258;SDS011;10787;53.364;-1.480;2024-03-17T10:30:39;2.53;;;2.08;;
21258;SDS011;10787;53.364;-1.480;2024-03-17T10:33:24;2.65;;;1.80;;
21258;SDS011;10787;53.364;-1.480;2024-03-17T10:36:15;2.20;;;1.70;;
21258;SDS011;10787;53.364;-1.480;2024-03-17T10:39:01;2.13;;;1.60;;
21258;SDS011;10787;53.364;-1.480;2024-03-17T10:41:46;1.80;;;1.30;;
21258;SDS011;10787;53.364;-1.480;2024-03-17T10:44:32;1.30;;;1.20;;
21258;SDS011;10787;53.364;-1.480;2024-03-17T10:47:24;3.10;;;1.30;;
21258;SDS011;10787;53.364;-1.480;2024-03-17T10:50:21;1.90;;;1.10;;
21258;SDS011;10787;53.364;-1.480;2024-03-17T10:53:07;1.83;;;1.20;;
21258;SDS011;10787;53.364;-1.480;2024-03-17T10:56:04;2.20;;;1.40;;
21258;SDS011;10787;53.364;-1.480;2024-03-17T10:58:53;5.27;;;3.30;;
21258;SDS011;10787;53.364;-1.480;2024-03-17T11:01:41;1.58;;;1.20;;
21258;SDS011;10787;53.364;-1.480;2024-03-17T11:04:27;1.83;;;1.10;;
21258;SDS011;10787;53.364;-1.480;2024-03-17T11:07:15;1.35;;;1.10;;
21258;SDS011;10787;53.364;-1.480;2024-03-17T11:10:01;1.40;;;1.02;;
21258;SDS011;10787;53.364;-1.480;2024-03-17T11:18:27;1.80;;;1.13;;
21258;SDS011;10787;53.364;-1.480;2024-03-17T11:24:04;1.30;;;0.73;;
21258;SDS011;10787;53.364;-1.480;2024-03-17T11:26:48;1.42;;;0.70;;
21258;SDS011;10787;53.364;-1.480;2024-03-17T11:29:32;1.90;;;1.05;;
21258;SDS011;10787;53.364;-1.480;2024-03-17T11:32:25;1.40;;;0.90;;
21258;SDS011;10787;53.364;-1.480;2024-03-17T11:35:14;0.70;;;0.70;;
21258;SDS011;10787;53.364;-1.480;2024-03-17T11:37:59;2.03;;;0.70;;
21258;SDS011;10787;53.364;-1.480;2024-03-17T11:40:43;0.63;;;0.60;;
21258;SDS011;10787;53.364;-1.480;2024-03-17T11:43:27;0.95;;;0.75;;
21258;SDS011;10787;53.364;-1.480;2024-03-17T11:46:11;1.05;;;0.68;;
21258;SDS011;10787;53.364;-1.480;2024-03-17T11:48:57;2.90;;;1.25;;
21258;SDS011;10787;53.364;-1.480;2024-03-17T11:51:41;1.70;;;1.02;;
21258;SDS011;10787;53.364;-1.480;2024-03-17T11:54:27;1.80;;;0.80;;
21258;SDS011;10787;53.364;-1.480;2024-03-17T11:57:13;1.52;;;0.77;;
21258;SDS011;10787;53.364;-1.480;2024-03-17T12:00:06;2.33;;;1.50;;
21258;SDS011;10787;53.364;-1.480;2024-03-17T12:03:04;1.50;;;0.60;;
21258;SDS011;10787;53.364;-1.480;2024-03-17T12:05:48;0.60;;;0.60;;
21258;SDS011;10787;53.364;-1.480;2024-03-17T12:08:33;1.00;;;0.60;;
21258;SDS011;10787;53.364;-1.480;2024-03-17T12:11:17;0.60;;;0.50;;
21258;SDS011;10787;53.364;-1.480;2024-03-17T12:14:09;4.00;;;2.83;;
21258;SDS011;10787;53.364;-1.480;2024-03-17T12:17:01;0.65;;;0.50;;
21258;SDS011;10787;53.364;-1.480;2024-03-17T12:19:53;0.73;;;0.40;;
21258;SDS011;10787;53.364;-1.480;2024-03-17T12:22:39;1.55;;;0.70;;
21258;SDS011;10787;53.364;-1.480;2024-03-17T12:25:25;0.65;;;0.60;;
21258;SDS011;10787;53.364;-1.480;2024-03-17T12:28:16;1.52;;;0.60;;
21258;SDS011;10787;53.364;-1.480;2024-03-17T12:31:00;0.77;;;0.60;;
21258;SDS011;10787;53.364;-1.480;2024-03-17T12:33:45;0.90;;;0.52;;
21258;SDS011;10787;53.364;-1.480;2024-03-17T12:36:29;0.90;;;0.50;;
21258;SDS011;10787;53.364;-1.480;2024-03-17T12:39:18;0.57;;;0.50;;
21258;SDS011;10787;53.364;-1.480;2024-03-17T12:42:13;2.80;;;0.55;;
21258;SDS011;10787;53.364;-1.480;2024-03-17T12:44:59;0.70;;;0.50;;
21258;SDS011;10787;53.364;-1.480;2024-03-17T12:47:46;0.65;;;0.50;;
21258;SDS011;10787;53.364;-1.480;2024-03-17T12:50:32;0.45;;;0.45;;
21258;SDS011;10787;53.364;-1.480;2024-03-17T12:53:17;0.80;;;0.50;;
21258;SDS011;10787;53.364;-1.480;2024-03-17T12:56:01;1.38;;;0.70;;
21258;SDS011;10787;53.364;-1.480;2024-03-17T12:59:05;0.57;;;0.50;;
21258;SDS011;10787;53.364;-1.480;2024-03-17T13:02:10;1.23;;;0.70;;
21258;SDS011;10787;53.364;-1.480;2024-03-17T13:07:57;0.65;;;0.57;;
21258;SDS011;10787;53.364;-1.480;2024-03-17T13:10:42;1.17;;;0.68;;
21258;SDS011;10787;53.364;-1.480;2024-03-17T13:13:27;1.73;;;0.70;;
21258;SDS011;10787;53.364;-1.480;2024-03-17T13:16:11;0.50;;;0.50;;
21258;SDS011;10787;53.364;-1.480;2024-03-17T13:18:57;1.13;;;0.52;;
21258;SDS011;10787;53.364;-1.480;2024-03-17T13:21:42;0.80;;;0.60;;
21258;SDS011;10787;53.364;-1.480;2024-03-17T13:24:26;0.85;;;0.60;;
21258;SDS011;10787;53.364;-1.480;2024-03-17T13:27:10;1.20;;;0.60;;
21258;SDS011;10787;53.364;-1.480;2024-03-17T13:29:54;0.93;;;0.70;;
21258;SDS011;10787;53.364;-1.480;2024-03-17T13:32:38;1.38;;;0.70;;
21258;SDS011;10787;53.364;-1.480;2024-03-17T13:35:28;1.00;;;0.70;;
21258;SDS011;10787;53.364;-1.480;2024-03-17T13:38:13;0.80;;;0.77;;
21258;SDS011;10787;53.364;-1.480;2024-03-17T13:40:58;0.90;;;0.68;;
21258;SDS011;10787;53.364;-1.480;2024-03-17T13:43:42;0.70;;;0.52;;
21258;SDS011;10787;53.364;-1.480;2024-03-17T13:46:28;1.40;;;1.10;;
21258;SDS011;10787;53.364;-1.480;2024-03-17T13:49:12;1.25;;;0.60;;
21258;SDS011;10787;53.364;-1.480;2024-03-17T13:51:56;1.15;;;0.60;;
21258;SDS011;10787;53.364;-1.480;2024-03-17T13:54:40;3.83;;;0.60;;
21258;SDS011;10787;53.364;-1.480;2024-03-17T13:57:24;0.65;;;0.50;;
21258;SDS011;10787;53.364;-1.480;2024-03-17T14:00:08;1.25;;;0.50;;
21258;SDS011;10787;53.364;-1.480;2024-03-17T14:02:53;1.38;;;0.55;;
21258;SDS011;10787;53.364;-1.480;2024-03-17T14:05:39;0.52;;;0.40;;
21258;SDS011;10787;53.364;-1.480;2024-03-17T14:08:24;1.70;;;0.50;;
21258;SDS011;10787;53.364;-1.480;2024-03-17T14:11:09;0.98;;;0.60;;
21258;SDS011;10787;53.364;-1.480;2024-03-17T14:13:53;1.40;;;0.60;;
21258;SDS011;10787;53.364;-1.480;2024-03-17T14:16:37;1.48;;;0.57;;
21258;SDS011;10787;53.364;-1.480;2024-03-17T14:19:23;0.57;;;0.57;;
21258;SDS011;10787;53.364;-1.480;2024-03-17T14:22:08;1.30;;;0.43;;
21258;SDS011;10787;53.364;-1.480;2024-03-17T14:24:52;0.60;;;0.57;;
21258;SDS011;10787;53.364;-1.480;2024-03-17T14:27:36;0.60;;;0.50;;
21258;SDS011;10787;53.364;-1.480;2024-03-17T14:30:21;0.88;;;0.50;;
21258;SDS011;10787;53.364;-1.480;2024-03-17T14:33:05;1.15;;;0.80;;
21258;SDS011;10787;53.364;-1.480;2024-03-17T14:35:57;0.80;;;0.60;;
21258;SDS011;10787;53.364;-1.480;2024-03-17T14:38:41;2.40;;;0.60;;
21258;SDS011;10787;53.364;-1.480;2024-03-17T14:41:30;1.00;;;0.60;;
21258;SDS011;10787;53.364;-1.480;2024-03-17T14:44:14;0.90;;;0.80;;
21258;SDS011;10787;53.364;-1.480;2024-03-17T14:46:58;1.10;;;0.90;;
21258;SDS011;10787;53.364;-1.480;2024-03-17T14:49:43;0.60;;;0.60;;
21258;SDS011;10787;53.364;-1.480;2024-03-17T14:52:29;0.65;;;0.45;;
21258;SDS011;10787;53.364;-1.480;2024-03-17T14:55:13;1.73;;;0.75;;
21258;SDS011;10787;53.364;-1.480;2024-03-17T14:57:58;0.60;;;0.50;;
21258;SDS011;10787;53.364;-1.480;2024-03-17T15:00:46;0.85;;;0.55;;
21258;SDS011;10787;53.364;-1.480;2024-03-17T15:03:30;0.82;;;0.60;;
21258;SDS011;10787;53.364;-1.480;2024-03-17T15:06:14;0.90;;;0.70;;
21258;SDS011;10787;53.364;-1.480;2024-03-17T15:09:02;0.90;;;0.82;;
21258;SDS011;10787;53.364;-1.480;2024-03-17T15:11:47;1.42;;;0.93;;
21258;SDS011;10787;53.364;-1.480;2024-03-17T15:14:31;1.88;;;0.90;;
21258;SDS011;10787;53.364;-1.480;2024-03-17T15:17:15;1.70;;;0.70;;
21258;SDS011;10787;53.364;-1.480;2024-03-17T15:20:00;0.75;;;0.65;;
21258;SDS011;10787;53.364;-1.480;2024-03-17T15:22:50;0.80;;;0.60;;
21258;SDS011;10787;53.364;-1.480;2024-03-17T15:25:35;1.02;;;0.60;;
21258;SDS011;10787;53.364;-1.480;2024-03-17T15:28:19;1.33;;;0.60;;
21258;SDS011;10787;53.364;-1.480;2024-03-17T15:31:04;2.35;;;0.65;;
21258;SDS011;10787;53.364;-1.480;2024-03-17T15:33:51;1.98;;;0.70;;
21258;SDS011;10787;53.364;-1.480;2024-03-17T15:36:35;1.20;;;0.70;;
21258;SDS011;10787;53.364;-1.480;2024-03-17T15:39:19;1.30;;;0.77;;
21258;SDS011;10787;53.364;-1.480;2024-03-17T15:42:05;2.03;;;0.80;;
21258;SDS011;10787;53.364;-1.480;2024-03-17T15:44:49;2.50;;;0.85;;
21258;SDS011;10787;53.364;-1.480;2024-03-17T15:47:34;2.95;;;0.90;;
21258;SDS011;10787;53.364;-1.480;2024-03-17T15:50:18;2.28;;;0.98;;
21258;SDS011;10787;53.364;-1.480;2024-03-17T15:53:03;2.53;;;0.90;;
21258;SDS011;10787;53.364;-1.480;2024-03-17T15:55:54;2.35;;;0.80;;
21258;SDS011;10787;53.364;-1.480;2024-03-17T15:58:40;1.92;;;0.90;;
21258;SDS011;10787;53.364;-1.480;2024-03-17T16:01:24;3.22;;;1.00;;
21258;SDS011;10787;53.364;-1.480;2024-03-17T16:04:10;2.50;;;0.93;;
21258;SDS011;10787;53.364;-1.480;2024-03-17T16:06:54;2.50;;;0.90;;
21258;SDS011;10787;53.364;-1.480;2024-03-17T16:09:38;3.63;;;0.90;;
21258;SDS011;10787;53.364;-1.480;2024-03-17T16:12:23;2.47;;;0.77;;
21258;SDS011;10787;53.364;-1.480;2024-03-17T16:15:07;2.08;;;0.70;;
21258;SDS011;10787;53.364;-1.480;2024-03-17T16:17:52;1.55;;;0.75;;
21258;SDS011;10787;53.364;-1.480;2024-03-17T16:23:48;2.35;;;1.00;;
21258;SDS011;10787;53.364;-1.480;2024-03-17T16:26:37;2.30;;;0.80;;
21258;SDS011;10787;53.364;-1.480;2024-03-17T16:29:23;2.08;;;0.90;;